createdAt,value
2022-10-09T00:02:24.466Z,3.90
2022-10-09T00:05:27.139Z,4.28
2022-10-09T00:08:28.387Z,3.83
2022-10-09T00:11:32.318Z,3.95
2022-10-09T00:14:33.633Z,3.90
2022-10-09T00:17:34.373Z,3.22
2022-10-09T00:20:44.866Z,3.60
2022-10-09T00:23:45.797Z,3.67
2022-10-09T00:26:48.223Z,3.45
2022-10-09T00:29:50.475Z,4.18
2022-10-09T00:32:51.338Z,3.90
2022-10-09T00:35:52.582Z,3.53
2022-10-09T00:38:55.665Z,3.90
2022-10-09T00:41:56.697Z,3.80
2022-10-09T00:45:01.417Z,3.63
2022-10-09T00:48:07.639Z,3.40
2022-10-09T00:51:08.575Z,5.10
2022-10-09T00:54:15.861Z,3.08
2022-10-09T01:00:18.039Z,3.53
2022-10-09T01:03:19.249Z,3.60
2022-10-09T01:06:48.692Z,3.80
2022-10-09T01:10:17.692Z,3.75
2022-10-09T01:13:32.760Z,3.47
2022-10-09T01:16:46.864Z,3.38
2022-10-09T01:20:23.270Z,3.55
2022-10-09T01:24:05.468Z,3.40
2022-10-09T01:27:16.193Z,3.75
2022-10-09T01:30:17.819Z,3.78
2022-10-09T01:33:19.332Z,3.97
2022-10-09T01:36:23.000Z,4.18
2022-10-09T01:39:26.802Z,3.63
2022-10-09T01:42:30.362Z,3.60
2022-10-09T01:45:44.347Z,3.50
2022-10-09T01:48:55.718Z,3.75
2022-10-09T01:52:21.706Z,3.80
2022-10-09T01:55:53.168Z,3.38
2022-10-09T01:59:06.823Z,3.70
2022-10-09T02:02:09.144Z,3.58
2022-10-09T02:05:17.800Z,5.60
2022-10-09T02:08:22.762Z,4.07
2022-10-09T02:11:29.532Z,3.33
2022-10-09T02:14:30.601Z,3.50
2022-10-09T02:17:39.600Z,4.30
2022-10-09T02:20:48.624Z,4.03
2022-10-09T02:23:51.792Z,3.58
2022-10-09T02:26:57.537Z,4.20
2022-10-09T02:30:01.049Z,3.65
2022-10-09T02:33:03.753Z,4.03
2022-10-09T02:36:04.953Z,3.72
2022-10-09T02:39:07.584Z,3.60
2022-10-09T02:42:08.396Z,3.58
2022-10-09T02:45:09.992Z,3.60
2022-10-09T02:48:11.238Z,3.55
2022-10-09T02:51:12.350Z,3.80
2022-10-09T02:54:13.514Z,3.53
2022-10-09T02:57:14.301Z,3.85
2022-10-09T03:00:15.604Z,3.92
2022-10-09T03:03:16.637Z,3.25
2022-10-09T03:06:24.881Z,3.63
2022-10-09T03:09:29.153Z,3.05
2022-10-09T03:12:32.133Z,3.08
2022-10-09T03:15:37.639Z,3.55
2022-10-09T03:18:39.820Z,3.25
2022-10-09T03:21:40.898Z,3.95
2022-10-09T03:24:41.782Z,3.75
2022-10-09T03:27:43.106Z,3.15
2022-10-09T03:30:44.120Z,3.53
2022-10-09T03:33:45.375Z,3.38
2022-10-09T03:36:46.843Z,3.45
2022-10-09T03:39:48.016Z,3.72
2022-10-09T03:42:49.067Z,3.70
2022-10-09T03:45:50.957Z,3.90
2022-10-09T03:48:51.886Z,3.92
2022-10-09T03:51:52.672Z,3.53
2022-10-09T03:54:53.472Z,3.80
2022-10-09T03:57:54.202Z,5.07
2022-10-09T04:00:55.329Z,4.47
2022-10-09T04:03:56.338Z,4.05
2022-10-09T04:06:59.995Z,3.70
2022-10-09T04:10:01.036Z,4.63
2022-10-09T04:13:02.238Z,5.00
2022-10-09T04:16:03.150Z,5.30
2022-10-09T04:19:04.738Z,4.78
2022-10-09T04:22:05.492Z,4.55
2022-10-09T04:25:07.002Z,5.22
2022-10-09T04:28:08.146Z,4.72
2022-10-09T04:31:09.379Z,5.35
2022-10-09T04:34:10.530Z,4.93
2022-10-09T04:37:11.568Z,4.53
2022-10-09T04:40:12.366Z,5.75
2022-10-09T04:43:13.209Z,5.55
2022-10-09T04:46:15.566Z,5.80
2022-10-09T04:49:16.493Z,6.65
2022-10-09T04:52:17.300Z,5.53
2022-10-09T04:55:18.388Z,5.95
2022-10-09T04:58:19.050Z,5.70
2022-10-09T05:01:24.009Z,6.00
2022-10-09T05:04:24.690Z,6.07
2022-10-09T05:07:25.571Z,6.55
2022-10-09T05:10:26.226Z,7.07
2022-10-09T05:13:37.742Z,6.95
2022-10-09T05:17:01.300Z,6.03
2022-10-09T05:19:59.642Z,6.50
2022-10-09T05:23:00.791Z,6.40
2022-10-09T05:26:12.768Z,5.90
2022-10-09T05:29:13.578Z,6.47
2022-10-09T05:32:15.004Z,5.95
2022-10-09T05:35:15.938Z,5.80
2022-10-09T05:38:17.081Z,6.68
2022-10-09T05:41:20.010Z,6.60
2022-10-09T05:44:20.883Z,6.13
2022-10-09T05:47:21.551Z,6.38
2022-10-09T05:50:22.584Z,5.75
2022-10-09T05:53:23.600Z,5.38
2022-10-09T05:56:31.436Z,6.35
2022-10-09T05:59:32.475Z,6.95
2022-10-09T06:02:33.157Z,6.45
2022-10-09T06:05:34.257Z,7.03
2022-10-09T06:08:38.098Z,7.20
2022-10-09T06:11:40.639Z,6.45
2022-10-09T06:14:41.892Z,5.80
2022-10-09T06:17:42.837Z,6.72
2022-10-09T06:20:58.684Z,5.50
2022-10-09T06:24:03.049Z,6.00
2022-10-09T06:27:04.101Z,5.90
2022-10-09T06:30:05.327Z,5.75
2022-10-09T06:33:06.104Z,5.95
2022-10-09T06:36:17.051Z,6.10
2022-10-09T06:39:17.846Z,5.55
2022-10-09T06:42:18.600Z,5.60
2022-10-09T06:45:30.405Z,6.00
2022-10-09T06:48:33.792Z,5.18
2022-10-09T06:51:36.015Z,5.85
2022-10-09T06:54:37.171Z,6.30
2022-10-09T06:57:38.179Z,5.95
2022-10-09T07:00:38.822Z,6.35
2022-10-09T07:03:43.180Z,5.60
2022-10-09T07:06:47.765Z,5.57
2022-10-09T07:09:48.634Z,5.72
2022-10-09T07:12:49.643Z,6.28
2022-10-09T07:15:50.754Z,7.30
2022-10-09T07:18:52.278Z,6.32
2022-10-09T07:21:53.641Z,5.57
2022-10-09T07:24:54.498Z,7.20
2022-10-09T07:27:56.014Z,6.20
2022-10-09T07:30:57.826Z,6.53
2022-10-09T07:33:59.548Z,6.40
2022-10-09T07:37:00.336Z,5.88
2022-10-09T07:40:01.185Z,7.30
2022-10-09T07:43:02.330Z,6.47
2022-10-09T07:46:05.933Z,7.22
2022-10-09T07:49:07.151Z,6.55
2022-10-09T07:52:08.189Z,6.38
2022-10-09T07:55:09.595Z,6.97
2022-10-09T07:58:10.742Z,7.30
2022-10-09T08:01:16.141Z,7.07
2022-10-09T08:04:19.829Z,6.30
2022-10-09T08:07:20.549Z,6.57
2022-10-09T08:10:21.505Z,6.15
2022-10-09T08:13:22.462Z,6.47
2022-10-09T08:16:26.228Z,6.13
2022-10-09T08:19:27.071Z,6.07
2022-10-09T08:22:28.064Z,6.28
2022-10-09T08:25:29.062Z,6.55
2022-10-09T08:28:31.041Z,6.68
2022-10-09T08:31:32.993Z,6.10
2022-10-09T08:34:34.050Z,6.93
2022-10-09T08:37:34.947Z,7.03
2022-10-09T08:40:58.397Z,7.30
2022-10-09T08:44:06.723Z,6.40
2022-10-09T08:47:30.683Z,5.95
2022-10-09T08:50:38.378Z,6.53
2022-10-09T08:53:58.769Z,6.88
2022-10-09T08:57:06.744Z,6.90
2022-10-09T09:00:20.981Z,6.90
2022-10-09T09:03:51.892Z,6.78
2022-10-09T09:07:11.269Z,6.28
2022-10-09T09:10:43.734Z,6.43
2022-10-09T09:14:19.282Z,6.85
2022-10-09T09:17:45.804Z,6.85
2022-10-09T09:21:05.923Z,7.38
2022-10-09T09:24:18.016Z,5.82
2022-10-09T09:27:32.742Z,5.88
2022-10-09T09:30:44.421Z,5.78
2022-10-09T09:34:15.802Z,5.75
2022-10-09T09:37:16.980Z,5.90
2022-10-09T09:40:37.582Z,5.72
2022-10-09T09:43:39.157Z,5.90
2022-10-09T09:46:42.038Z,6.50
2022-10-09T09:49:59.682Z,6.32
2022-10-09T09:53:15.594Z,6.38
2022-10-09T09:56:18.527Z,7.03
2022-10-09T09:59:40.999Z,6.90
2022-10-09T10:02:41.748Z,6.57
2022-10-09T10:05:44.831Z,7.25
2022-10-09T10:08:46.184Z,6.80
2022-10-09T10:12:03.970Z,6.65
2022-10-09T10:15:05.526Z,6.90
2022-10-09T10:18:14.329Z,7.53
2022-10-09T10:21:19.696Z,7.63
2022-10-09T10:24:29.593Z,6.97
2022-10-09T10:27:40.486Z,6.78
2022-10-09T10:30:43.925Z,7.15
2022-10-09T10:33:52.141Z,7.10
2022-10-09T10:37:25.529Z,6.68
2022-10-09T10:40:36.625Z,6.55
2022-10-09T10:44:04.132Z,7.43
2022-10-09T10:47:14.512Z,6.95
2022-10-09T10:50:19.474Z,6.90
2022-10-09T10:53:43.356Z,7.72
2022-10-09T10:57:16.907Z,7.63
2022-10-09T11:00:18.366Z,6.82
2022-10-09T11:03:43.679Z,7.10
2022-10-09T11:07:10.879Z,7.00
2022-10-09T11:10:32.400Z,6.50
2022-10-09T11:14:05.525Z,7.20
2022-10-09T11:17:53.633Z,6.53
2022-10-09T11:21:09.309Z,7.25
2022-10-09T11:24:54.582Z,6.55
2022-10-09T11:28:08.338Z,6.40
2022-10-09T11:31:19.897Z,6.65
2022-10-09T11:34:39.623Z,7.15
2022-10-09T11:37:46.087Z,6.90
2022-10-09T11:40:48.009Z,7.15
2022-10-09T11:44:07.862Z,5.95
2022-10-09T11:48:27.104Z,7.07
2022-10-09T11:51:57.141Z,6.32
2022-10-09T11:55:42.932Z,6.68
2022-10-09T11:58:43.925Z,6.53
2022-10-09T12:01:46.079Z,7.85
2022-10-09T12:04:54.782Z,6.38
2022-10-09T12:08:11.217Z,6.80
2022-10-09T12:11:19.104Z,6.88
2022-10-09T12:14:26.972Z,7.25
2022-10-09T12:17:27.912Z,6.57
2022-10-09T12:20:28.932Z,7.78
2022-10-09T12:23:36.119Z,7.07
2022-10-09T12:26:37.097Z,7.72
2022-10-09T12:29:47.388Z,6.88
2022-10-09T12:33:12.861Z,7.10
2022-10-09T12:36:23.585Z,7.38
2022-10-09T12:39:24.885Z,7.43
2022-10-09T12:42:27.169Z,7.20
2022-10-09T12:45:31.759Z,7.63
2022-10-09T12:48:40.262Z,6.68
2022-10-09T12:51:40.966Z,8.13
2022-10-09T12:54:44.851Z,7.47
2022-10-09T12:57:46.408Z,6.82
2022-10-09T13:00:52.470Z,7.50
2022-10-09T13:04:05.594Z,6.75
2022-10-09T13:07:20.015Z,6.78
2022-10-09T13:10:24.128Z,7.38
2022-10-09T13:13:28.663Z,6.82
2022-10-09T13:16:42.923Z,6.03
2022-10-09T13:19:54.234Z,5.68
2022-10-09T13:23:05.094Z,5.72
2022-10-09T13:26:06.511Z,5.40
2022-10-09T13:29:08.556Z,5.97
2022-10-09T13:32:17.669Z,5.03
2022-10-09T13:35:18.743Z,4.90
2022-10-09T13:38:20.456Z,5.18
2022-10-09T13:41:25.142Z,5.10
2022-10-09T13:44:26.923Z,5.88
2022-10-09T13:47:28.975Z,5.68
2022-10-09T13:50:29.883Z,6.00
2022-10-09T13:53:30.726Z,5.65
2022-10-09T13:56:31.444Z,4.95
2022-10-09T13:59:32.534Z,5.65
2022-10-09T14:02:33.755Z,5.53
2022-10-09T14:05:34.493Z,5.78
2022-10-09T14:08:35.386Z,6.35
2022-10-09T14:11:36.672Z,5.70
2022-10-09T14:14:37.769Z,5.82
2022-10-09T14:17:38.546Z,6.25
2022-10-09T14:20:39.778Z,5.53
2022-10-09T14:23:40.665Z,5.28
2022-10-09T14:26:41.463Z,5.72
2022-10-09T14:29:42.280Z,5.65
2022-10-09T14:32:42.866Z,5.47
2022-10-09T14:35:43.731Z,5.90
2022-10-09T14:38:46.463Z,5.28
2022-10-09T14:41:47.548Z,6.00
2022-10-09T14:44:48.629Z,5.90
2022-10-09T14:47:49.193Z,5.80
2022-10-09T14:50:49.970Z,5.32
2022-10-09T14:53:51.185Z,5.68
2022-10-09T14:56:52.207Z,5.90
2022-10-09T14:59:53.233Z,5.53
2022-10-09T15:02:56.330Z,5.35
2022-10-09T15:06:06.096Z,5.03
2022-10-09T15:09:06.855Z,5.25
2022-10-09T15:12:07.540Z,5.20
2022-10-09T15:15:09.433Z,5.43
2022-10-09T15:18:10.248Z,5.57
2022-10-09T15:21:17.917Z,6.50
2022-10-09T15:24:18.773Z,6.18
2022-10-09T15:27:19.434Z,6.07
2022-10-09T15:30:20.732Z,5.70
2022-10-09T15:33:22.618Z,5.95
2022-10-09T15:36:25.314Z,5.50
2022-10-09T15:39:26.491Z,5.65
2022-10-09T15:42:27.260Z,5.57
2022-10-09T15:45:27.990Z,5.63
2022-10-09T15:48:28.695Z,6.10
2022-10-09T15:51:33.242Z,6.43
2022-10-09T15:54:34.697Z,6.20
2022-10-09T15:57:35.675Z,5.80
2022-10-09T16:00:39.773Z,5.50
2022-10-09T16:03:41.012Z,5.95
2022-10-09T16:06:42.039Z,6.07
2022-10-09T16:09:43.166Z,5.90
2022-10-09T16:12:43.975Z,6.10
2022-10-09T16:15:47.661Z,6.13
2022-10-09T16:18:48.894Z,6.07
2022-10-09T16:21:51.297Z,6.28
2022-10-09T16:24:52.133Z,6.85
2022-10-09T16:27:53.207Z,8.52
2022-10-09T16:30:54.340Z,9.70
2022-10-09T16:33:56.647Z,9.13
2022-10-09T16:36:59.705Z,8.88
2022-10-09T16:40:00.611Z,7.95
2022-10-09T16:43:01.345Z,8.15
2022-10-09T16:46:20.122Z,8.32
2022-10-09T16:49:24.143Z,10.27
2022-10-09T16:52:26.370Z,9.15
2022-10-09T16:55:27.594Z,9.82
2022-10-09T16:58:28.525Z,9.95
2022-10-09T17:01:31.058Z,9.57
2022-10-09T17:04:32.296Z,10.27
2022-10-09T17:07:34.109Z,10.07
2022-10-09T17:10:35.603Z,10.48
2022-10-09T17:13:37.335Z,10.65
2022-10-09T17:16:40.800Z,13.00
2022-10-09T17:19:42.679Z,12.90
2022-10-09T17:22:43.852Z,12.60
2022-10-09T17:25:45.458Z,17.75
2022-10-09T17:28:48.591Z,14.75
2022-10-09T17:31:50.536Z,10.65
2022-10-09T17:34:51.535Z,12.55
2022-10-09T17:37:55.100Z,14.68
2022-10-09T17:40:56.520Z,11.25
2022-10-09T17:43:58.778Z,11.68
2022-10-09T17:47:00.965Z,11.52
2022-10-09T17:50:01.986Z,12.82
2022-10-09T17:53:04.619Z,12.43
2022-10-09T17:56:05.724Z,12.30
2022-10-09T17:59:07.399Z,13.73
2022-10-09T18:02:08.510Z,14.27
2022-10-09T18:05:09.332Z,13.50
2022-10-09T18:08:11.139Z,14.52
2022-10-09T18:11:16.434Z,14.15
2022-10-09T18:14:17.554Z,13.65
2022-10-09T18:17:18.804Z,13.63
2022-10-09T18:20:19.616Z,15.00
2022-10-09T18:23:22.674Z,15.63
2022-10-09T18:26:24.336Z,13.65
2022-10-09T18:29:25.414Z,13.75
2022-10-09T18:32:26.732Z,15.40
2022-10-09T18:35:30.457Z,14.98
2022-10-09T18:38:31.635Z,16.00
2022-10-09T18:41:33.442Z,15.15
2022-10-09T18:44:40.332Z,16.10
2022-10-09T18:47:42.246Z,15.38
2022-10-09T18:50:44.280Z,15.32
2022-10-09T18:53:51.806Z,14.18
2022-10-09T18:56:53.575Z,15.98
2022-10-09T18:59:58.540Z,16.05
2022-10-09T19:02:59.480Z,16.95
2022-10-09T19:06:00.344Z,15.82
2022-10-09T19:09:01.458Z,14.23
2022-10-09T19:12:02.519Z,17.33
2022-10-09T19:15:06.132Z,17.67
2022-10-09T19:18:09.269Z,14.98
2022-10-09T19:21:14.342Z,16.73
2022-10-09T19:24:15.448Z,17.23
2022-10-09T19:27:16.638Z,16.67
2022-10-09T19:30:17.960Z,17.98
2022-10-09T19:33:19.312Z,18.02
2022-10-09T19:36:20.406Z,16.75
2022-10-09T19:39:22.433Z,16.27
2022-10-09T19:42:24.879Z,15.00
2022-10-09T19:45:25.720Z,15.45
2022-10-09T19:48:26.520Z,14.95
2022-10-09T19:51:27.701Z,15.80
2022-10-09T19:54:28.606Z,15.60
2022-10-09T19:57:29.361Z,16.23
2022-10-09T20:00:31.116Z,15.55
2022-10-09T20:03:32.308Z,17.17
2022-10-09T20:06:33.957Z,17.55
2022-10-09T20:09:34.875Z,15.95
2022-10-09T20:12:35.908Z,16.20
2022-10-09T20:15:41.161Z,16.27
2022-10-09T20:18:43.255Z,15.25
2022-10-09T20:21:44.406Z,16.77
2022-10-09T20:24:45.517Z,16.45
2022-10-09T20:27:46.427Z,17.77
2022-10-09T20:30:57.407Z,17.13
2022-10-09T20:33:59.071Z,16.73
2022-10-09T20:37:00.008Z,17.42
2022-10-09T20:40:01.091Z,18.70
2022-10-09T20:43:02.002Z,19.73
2022-10-09T20:46:13.631Z,18.70
2022-10-09T20:49:15.211Z,17.50
2022-10-09T20:52:15.980Z,18.85
2022-10-09T20:55:17.313Z,20.02
2022-10-09T20:58:18.862Z,20.05
2022-10-09T21:01:20.308Z,18.50
2022-10-09T21:04:21.287Z,20.23
2022-10-09T21:07:22.232Z,19.23
2022-10-09T21:10:23.049Z,21.05
2022-10-09T21:13:23.951Z,20.55
2022-10-09T21:16:26.111Z,20.00
2022-10-09T21:19:26.927Z,19.67
2022-10-09T21:22:27.766Z,20.33
2022-10-09T21:25:28.527Z,20.38
2022-10-09T21:28:30.646Z,20.98
2022-10-09T21:31:33.362Z,20.75
2022-10-09T21:34:34.390Z,21.27
2022-10-09T21:37:37.510Z,22.38
2022-10-09T21:40:39.175Z,22.92
2022-10-09T21:43:39.933Z,22.30
2022-10-09T21:46:41.888Z,23.45
2022-10-09T21:49:42.676Z,22.83
2022-10-09T21:52:43.380Z,22.20
2022-10-09T21:55:44.246Z,20.67
2022-10-09T21:58:49.042Z,21.77
2022-10-09T22:01:49.822Z,22.20
2022-10-09T22:04:51.725Z,21.70
2022-10-09T22:07:52.868Z,24.13
2022-10-09T22:10:53.749Z,27.02
2022-10-09T22:13:56.094Z,26.08
2022-10-09T22:16:56.971Z,25.25
2022-10-09T22:19:57.814Z,26.80
2022-10-09T22:22:58.415Z,25.55
2022-10-09T22:26:04.223Z,26.83
2022-10-09T22:29:05.487Z,23.98
2022-10-09T22:32:06.210Z,24.63
2022-10-09T22:35:07.272Z,25.13
2022-10-09T22:38:08.245Z,26.25
2022-10-09T22:41:17.518Z,25.90
2022-10-09T22:44:18.368Z,25.85
2022-10-09T22:47:19.098Z,25.35
2022-10-09T22:50:19.831Z,24.40
2022-10-09T22:53:20.647Z,23.58
2022-10-09T22:56:25.761Z,24.42
2022-10-09T22:59:26.936Z,25.60
2022-10-09T23:02:27.926Z,24.85
2022-10-09T23:05:28.648Z,26.92
2022-10-09T23:08:29.346Z,24.58
2022-10-09T23:11:30.095Z,21.73
2022-10-09T23:14:31.031Z,25.25
2022-10-09T23:17:32.635Z,25.45
2022-10-09T23:20:37.405Z,25.88
2022-10-09T23:23:38.297Z,26.80
2022-10-09T23:26:39.263Z,27.42
2022-10-09T23:29:40.356Z,28.33
2022-10-09T23:32:41.492Z,28.90
2022-10-09T23:35:43.129Z,27.13
2022-10-09T23:38:44.440Z,28.02
2022-10-09T23:41:45.598Z,28.13
2022-10-09T23:44:46.398Z,27.00
2022-10-09T23:47:47.087Z,27.98
2022-10-09T23:50:49.877Z,26.85
2022-10-09T23:53:51.324Z,27.00
2022-10-09T23:56:52.296Z,28.67
2022-10-09T23:59:52.952Z,28.00
